createdAt,value
2018-08-18T00:01:37.414Z,81.60
2018-08-18T00:04:24.966Z,81.30
2018-08-18T00:06:54.294Z,81.40
2018-08-18T00:09:23.773Z,81.00
2018-08-18T00:11:53.059Z,81.00
2018-08-18T00:14:22.310Z,80.90
2018-08-18T00:16:51.564Z,80.80
2018-08-18T00:19:24.081Z,80.90
2018-08-18T00:21:53.313Z,80.70
2018-08-18T00:24:22.568Z,80.50
2018-08-18T00:26:51.817Z,80.40
2018-08-18T00:29:21.064Z,80.20
2018-08-18T00:31:50.285Z,80.20
2018-08-18T00:34:19.563Z,80.00
2018-08-18T00:36:48.820Z,80.30
2018-08-18T00:39:18.032Z,80.20
2018-08-18T00:41:47.276Z,79.90
2018-08-18T00:44:16.535Z,79.70
2018-08-18T00:46:45.781Z,79.70
2018-08-18T00:49:15.095Z,80.50
2018-08-18T00:51:44.339Z,81.10
2018-08-18T00:54:13.606Z,81.60
2018-08-18T00:56:43.262Z,82.00
2018-08-18T00:59:12.537Z,82.80
2018-08-18T01:01:41.928Z,82.80
2018-08-18T01:04:11.210Z,84.30
2018-08-18T01:06:41.534Z,83.30
2018-08-18T01:09:12.690Z,83.40
2018-08-18T01:11:41.999Z,83.30
2018-08-18T01:14:17.152Z,83.50
2018-08-18T01:16:52.614Z,83.90
2018-08-18T01:19:22.978Z,83.80
2018-08-18T01:21:58.197Z,83.80
2018-08-18T01:24:28.045Z,83.80
2018-08-18T01:26:57.681Z,83.80
2018-08-18T01:29:27.049Z,83.80
2018-08-18T01:31:56.277Z,83.80
2018-08-18T01:34:25.573Z,83.80
2018-08-18T01:36:54.913Z,83.90
2018-08-18T01:39:24.153Z,84.50
2018-08-18T01:41:53.400Z,84.00
2018-08-18T01:44:23.902Z,84.40
2018-08-18T01:46:54.795Z,84.50
2018-08-18T01:49:40.480Z,84.50
2018-08-18T01:52:16.398Z,84.80
2018-08-18T01:54:46.110Z,84.70
2018-08-18T01:57:17.888Z,84.80
2018-08-18T01:59:47.692Z,83.80
2018-08-18T02:02:26.833Z,83.10
2018-08-18T02:05:03.466Z,82.80
2018-08-18T02:07:33.747Z,82.70
2018-08-18T02:10:03.089Z,82.80
2018-08-18T02:12:32.325Z,82.70
2018-08-18T02:15:01.576Z,82.20
2018-08-18T02:17:32.735Z,82.30
2018-08-18T02:20:02.232Z,82.30
2018-08-18T02:22:32.174Z,82.20
2018-08-18T02:25:01.446Z,82.00
2018-08-18T02:27:30.676Z,82.00
2018-08-18T02:30:14.898Z,82.80
2018-08-18T02:32:44.148Z,82.00
2018-08-18T02:35:13.424Z,82.00
2018-08-18T02:37:42.662Z,82.10
2018-08-18T02:40:14.117Z,82.20
2018-08-18T02:42:43.367Z,82.20
2018-08-18T02:45:13.558Z,82.30
2018-08-18T02:47:43.112Z,82.30
2018-08-18T02:50:13.799Z,82.50
2018-08-18T02:52:43.040Z,82.50
2018-08-18T02:55:12.911Z,82.70
2018-08-18T02:57:43.787Z,82.70
2018-08-18T03:00:22.398Z,82.80
2018-08-18T03:03:00.414Z,82.60
2018-08-18T03:05:29.719Z,82.60
2018-08-18T03:07:59.036Z,82.70
2018-08-18T03:10:28.428Z,82.60
2018-08-18T03:12:59.990Z,83.30
2018-08-18T03:16:09.289Z,82.70
2018-08-18T03:18:49.750Z,82.70
2018-08-18T03:21:20.815Z,82.70
2018-08-18T03:24:07.345Z,82.70
2018-08-18T03:26:41.346Z,82.80
2018-08-18T03:29:11.024Z,82.80
2018-08-18T03:31:40.788Z,83.00
2018-08-18T03:34:10.587Z,82.90
2018-08-18T03:36:48.840Z,83.00
2018-08-18T03:39:25.226Z,83.10
2018-08-18T03:41:55.861Z,83.00
2018-08-18T03:44:25.073Z,83.00
2018-08-18T03:46:54.340Z,83.00
2018-08-18T03:49:23.703Z,83.10
2018-08-18T03:51:54.142Z,83.10
2018-08-18T03:54:23.371Z,83.10
2018-08-18T03:56:52.653Z,83.20
2018-08-18T03:59:21.869Z,84.00
2018-08-18T04:01:54.365Z,83.20
2018-08-18T04:04:24.663Z,83.30
2018-08-18T04:06:55.366Z,83.30
2018-08-18T04:09:26.081Z,83.30
2018-08-18T04:11:56.757Z,83.10
2018-08-18T04:14:31.410Z,83.20
2018-08-18T04:17:00.749Z,83.40
2018-08-18T04:19:29.961Z,83.60
2018-08-18T04:21:59.233Z,83.70
2018-08-18T04:24:34.423Z,83.90
2018-08-18T04:27:03.665Z,84.10
2018-08-18T04:29:32.948Z,84.10
2018-08-18T04:32:02.670Z,84.10
2018-08-18T04:34:31.952Z,84.10
2018-08-18T04:37:02.442Z,84.90
2018-08-18T04:39:31.835Z,84.10
2018-08-18T04:42:01.097Z,84.20
2018-08-18T04:44:30.378Z,84.10
2018-08-18T04:46:59.635Z,84.20
2018-08-18T04:49:29.019Z,84.40
2018-08-18T04:51:58.231Z,84.60
2018-08-18T04:54:27.513Z,84.80
2018-08-18T04:56:56.772Z,84.80
2018-08-18T04:59:26.204Z,84.80
2018-08-18T05:01:55.417Z,84.80
2018-08-18T05:04:24.657Z,84.60
2018-08-18T05:06:53.893Z,84.90
2018-08-18T05:09:23.108Z,84.60
2018-08-18T05:11:52.302Z,84.60
2018-08-18T05:14:21.521Z,84.50
2018-08-18T05:16:50.766Z,84.50
2018-08-18T05:19:20.043Z,84.40
2018-08-18T05:21:49.297Z,84.20
2018-08-18T05:24:26.961Z,84.00
2018-08-18T05:26:56.471Z,83.70
2018-08-18T05:29:25.753Z,83.60
2018-08-18T05:31:55.018Z,83.30
2018-08-18T05:34:24.320Z,83.40
2018-08-18T05:36:53.617Z,83.30
2018-08-18T05:39:22.878Z,83.50
2018-08-18T05:41:52.189Z,83.30
2018-08-18T05:44:21.421Z,83.40
2018-08-18T05:46:50.662Z,83.20
2018-08-18T05:49:19.910Z,83.10
2018-08-18T05:51:50.693Z,83.10
2018-08-18T05:54:25.403Z,83.00
2018-08-18T05:56:55.704Z,82.90
2018-08-18T05:59:24.965Z,82.70
2018-08-18T06:01:54.224Z,82.60
2018-08-18T06:04:23.463Z,82.70
2018-08-18T06:06:53.338Z,82.70
2018-08-18T06:09:23.352Z,82.60
2018-08-18T06:11:53.456Z,82.60
2018-08-18T06:14:22.690Z,82.70
2018-08-18T06:16:52.654Z,82.70
2018-08-18T06:19:21.892Z,82.80
2018-08-18T06:21:51.124Z,82.60
2018-08-18T06:24:20.481Z,82.40
2018-08-18T06:26:49.706Z,82.20
2018-08-18T06:29:18.952Z,82.30
2018-08-18T06:32:00.749Z,82.00
2018-08-18T06:34:31.844Z,82.70
2018-08-18T06:37:02.197Z,81.70
2018-08-18T06:39:50.872Z,81.60
2018-08-18T06:42:46.280Z,81.50
2018-08-18T06:45:18.179Z,81.10
2018-08-18T06:47:47.463Z,80.90
2018-08-18T06:50:17.714Z,80.90
2018-08-18T06:52:47.536Z,80.70
2018-08-18T06:55:18.931Z,80.60
2018-08-18T06:57:51.680Z,80.60
2018-08-18T07:00:25.362Z,80.90
2018-08-18T07:02:54.748Z,81.00
2018-08-18T07:05:23.989Z,81.00
2018-08-18T07:07:53.219Z,80.90
2018-08-18T07:10:35.565Z,81.10
2018-08-18T07:13:08.250Z,81.30
2018-08-18T07:15:39.738Z,81.30
2018-08-18T07:18:10.956Z,81.40
2018-08-18T07:20:40.258Z,81.40
2018-08-18T07:23:09.640Z,81.50
2018-08-18T07:25:48.730Z,81.60
2018-08-18T07:28:22.288Z,81.60
2018-08-18T07:30:51.601Z,81.40
2018-08-18T07:33:20.832Z,81.20
2018-08-18T07:35:50.224Z,81.20
2018-08-18T07:38:19.482Z,81.20
2018-08-18T07:40:50.973Z,81.20
2018-08-18T07:43:23.409Z,81.30
2018-08-18T07:45:54.886Z,81.10
2018-08-18T07:48:25.078Z,81.50
2018-08-18T07:50:54.329Z,82.20
2018-08-18T07:53:23.603Z,81.40
2018-08-18T07:55:52.882Z,81.70
2018-08-18T07:58:24.637Z,81.00
2018-08-18T08:00:56.942Z,80.80
2018-08-18T08:03:26.300Z,80.80
2018-08-18T08:05:55.780Z,80.70
2018-08-18T08:08:25.591Z,81.10
2018-08-18T08:10:59.809Z,80.00
2018-08-18T08:13:29.109Z,80.20
2018-08-18T08:15:58.451Z,80.00
2018-08-18T08:18:27.766Z,79.80
2018-08-18T08:20:57.112Z,79.50
2018-08-18T08:23:26.371Z,79.40
2018-08-18T08:25:55.737Z,79.20
2018-08-18T08:28:25.706Z,78.70
2018-08-18T08:30:55.118Z,79.00
2018-08-18T08:33:36.401Z,78.70
2018-08-18T08:36:13.445Z,79.30
2018-08-18T08:39:00.041Z,78.00
2018-08-18T08:41:31.797Z,77.90
2018-08-18T08:44:01.357Z,77.90
2018-08-18T08:46:30.654Z,77.70
2018-08-18T08:49:01.568Z,77.20
2018-08-18T08:51:30.863Z,77.30
2018-08-18T08:54:00.666Z,77.30
2018-08-18T08:56:45.444Z,77.20
2018-08-18T08:59:14.741Z,77.10
2018-08-18T09:01:44.016Z,76.80
2018-08-18T09:04:13.269Z,76.60
2018-08-18T09:06:48.685Z,76.70
2018-08-18T09:09:17.913Z,76.60
2018-08-18T09:11:47.177Z,76.40
2018-08-18T09:14:16.404Z,76.30
2018-08-18T09:16:45.688Z,76.40
2018-08-18T09:19:14.924Z,76.40
2018-08-18T09:21:49.390Z,76.20
2018-08-18T09:24:18.913Z,76.00
2018-08-18T09:27:09.355Z,76.00
2018-08-18T09:29:44.870Z,75.30
2018-08-18T09:32:14.534Z,75.70
2018-08-18T09:34:50.670Z,75.20
2018-08-18T09:37:20.625Z,75.10
2018-08-18T09:39:49.860Z,74.70
2018-08-18T09:42:20.055Z,74.60
2018-08-18T09:44:50.777Z,74.70
2018-08-18T09:47:20.060Z,74.80
2018-08-18T09:49:49.309Z,74.80
2018-08-18T09:52:20.078Z,75.30
2018-08-18T09:54:49.356Z,75.50
2018-08-18T09:57:18.611Z,74.20
2018-08-18T09:59:47.887Z,74.00
2018-08-18T10:02:17.108Z,74.00
2018-08-18T10:04:46.351Z,74.00
2018-08-18T10:07:15.635Z,74.10
2018-08-18T10:09:44.869Z,74.20
2018-08-18T10:12:14.185Z,74.00
2018-08-18T10:14:43.430Z,73.70
2018-08-18T10:17:12.733Z,73.60
2018-08-18T10:19:41.968Z,73.70
2018-08-18T10:22:11.224Z,72.50
2018-08-18T10:24:40.783Z,72.10
2018-08-18T10:27:10.136Z,71.70
2018-08-18T10:29:45.712Z,71.50
2018-08-18T10:32:15.030Z,70.80
2018-08-18T10:34:44.281Z,70.20
2018-08-18T10:37:14.888Z,69.10
2018-08-18T10:39:44.097Z,68.90
2018-08-18T10:42:16.045Z,68.20
2018-08-18T10:44:51.512Z,68.10
2018-08-18T10:47:23.076Z,68.00
2018-08-18T10:50:09.676Z,67.60
2018-08-18T10:52:56.204Z,67.10
2018-08-18T10:55:25.425Z,66.70
2018-08-18T10:58:00.724Z,66.20
2018-08-18T11:00:31.225Z,65.60
2018-08-18T11:03:02.171Z,65.40
2018-08-18T11:05:31.795Z,64.70
2018-08-18T11:08:08.838Z,64.50
2018-08-18T11:10:40.333Z,64.10
2018-08-18T11:13:09.672Z,64.40
2018-08-18T11:15:38.897Z,63.50
2018-08-18T11:18:08.286Z,63.10
2018-08-18T11:20:37.550Z,63.30
2018-08-18T11:23:10.816Z,63.20
2018-08-18T11:25:45.697Z,62.70
2018-08-18T11:28:15.851Z,62.60
2018-08-18T11:30:45.170Z,62.20
2018-08-18T11:33:31.221Z,61.80
2018-08-18T11:36:00.575Z,60.80
2018-08-18T11:38:29.868Z,59.40
2018-08-18T11:40:59.114Z,59.50
2018-08-18T11:43:28.959Z,59.30
2018-08-18T11:45:58.196Z,60.10
2018-08-18T11:48:27.653Z,59.60
2018-08-18T11:50:57.466Z,58.90
2018-08-18T11:53:26.823Z,58.60
2018-08-18T11:55:56.073Z,57.90
2018-08-18T11:58:25.698Z,57.90
2018-08-18T12:00:58.140Z,57.50
2018-08-18T12:03:31.774Z,57.60
2018-08-18T12:06:03.380Z,57.20
2018-08-18T12:08:34.377Z,57.10
2018-08-18T12:11:05.880Z,57.10
2018-08-18T12:13:41.060Z,56.70
2018-08-18T12:16:13.324Z,56.20
2018-08-18T12:18:44.218Z,56.40
2018-08-18T12:21:13.660Z,55.60
2018-08-18T12:23:46.833Z,55.80
2018-08-18T12:26:20.503Z,55.80
2018-08-18T12:28:55.097Z,55.40
2018-08-18T12:31:27.466Z,55.00
2018-08-18T12:33:56.901Z,54.90
2018-08-18T12:36:26.478Z,54.60
2018-08-18T12:38:57.140Z,54.20
2018-08-18T12:41:26.541Z,54.10
2018-08-18T12:43:57.200Z,53.60
2018-08-18T12:46:35.747Z,54.00
2018-08-18T12:49:06.583Z,53.70
2018-08-18T12:51:35.811Z,53.30
2018-08-18T12:54:10.666Z,53.40
2018-08-18T12:56:39.906Z,53.20
2018-08-18T12:59:09.703Z,53.20
2018-08-18T13:01:43.669Z,52.90
2018-08-18T13:04:14.391Z,52.60
2018-08-18T13:06:51.098Z,52.80
2018-08-18T13:09:21.668Z,52.00
2018-08-18T13:11:52.170Z,51.70
2018-08-18T13:14:30.157Z,52.10
2018-08-18T13:16:59.402Z,52.30
2018-08-18T13:19:32.750Z,52.10
2018-08-18T13:22:02.013Z,51.80
2018-08-18T13:24:32.319Z,52.10
2018-08-18T13:27:02.628Z,52.20
2018-08-18T13:29:32.637Z,51.80
2018-08-18T13:32:01.927Z,51.80
2018-08-18T13:34:31.209Z,51.60
2018-08-18T13:37:00.433Z,51.30
2018-08-18T13:39:29.765Z,50.90
2018-08-18T13:41:59.495Z,51.20
2018-08-18T13:44:43.211Z,51.10
2018-08-18T13:47:12.481Z,51.30
2018-08-18T13:49:41.741Z,51.40
2018-08-18T13:52:11.083Z,51.50
2018-08-18T13:54:47.373Z,51.70
2018-08-18T13:57:20.743Z,51.70
2018-08-18T13:59:50.030Z,52.00
2018-08-18T14:02:19.261Z,52.70
2018-08-18T14:04:48.564Z,52.00
2018-08-18T14:07:17.900Z,52.30
2018-08-18T14:09:52.505Z,52.40
2018-08-18T14:12:21.737Z,52.50
2018-08-18T14:14:51.004Z,52.10
2018-08-18T14:17:22.155Z,51.70
2018-08-18T14:19:51.958Z,51.60
2018-08-18T14:22:23.042Z,51.80
2018-08-18T14:24:52.301Z,51.80
2018-08-18T14:27:23.074Z,51.90
2018-08-18T14:29:52.314Z,52.10
2018-08-18T14:32:27.579Z,52.80
2018-08-18T14:35:08.041Z,53.50
2018-08-18T14:37:40.414Z,53.50
2018-08-18T14:40:13.586Z,53.30
2018-08-18T14:42:42.833Z,53.10
2018-08-18T14:45:14.736Z,52.70
2018-08-18T14:47:44.416Z,52.40
2018-08-18T14:50:18.918Z,52.40
2018-08-18T14:52:48.176Z,52.50
2018-08-18T14:55:17.689Z,52.30
2018-08-18T14:58:02.410Z,52.10
2018-08-18T15:00:32.183Z,51.90
2018-08-18T15:03:01.521Z,52.70
2018-08-18T15:05:30.925Z,52.00
2018-08-18T15:08:00.424Z,52.10
2018-08-18T15:10:39.670Z,51.70
2018-08-18T15:13:09.706Z,51.60
2018-08-18T15:15:39.191Z,51.70
2018-08-18T15:18:11.542Z,51.30
2018-08-18T15:20:41.565Z,51.30
2018-08-18T15:23:11.646Z,51.90
2018-08-18T15:25:41.805Z,51.40
2018-08-18T15:28:12.229Z,51.40
2018-08-18T15:30:43.801Z,51.50
2018-08-18T15:33:16.898Z,51.50
2018-08-18T15:35:46.208Z,51.80
2018-08-18T15:38:15.505Z,52.00
2018-08-18T15:40:45.032Z,52.10
2018-08-18T15:43:14.254Z,52.40
2018-08-18T15:46:02.732Z,52.50
2018-08-18T15:48:32.384Z,52.80
2018-08-18T15:51:01.663Z,52.80
2018-08-18T15:53:59.880Z,52.80
2018-08-18T15:56:30.275Z,53.00
2018-08-18T15:59:00.320Z,53.20
2018-08-18T16:01:30.965Z,53.40
2018-08-18T16:04:01.923Z,53.40
2018-08-18T16:06:31.416Z,53.40
2018-08-18T16:09:00.670Z,53.40
2018-08-18T16:11:30.002Z,53.30
2018-08-18T16:13:59.357Z,53.40
2018-08-18T16:16:28.661Z,53.70
2018-08-18T16:19:03.933Z,53.70
2018-08-18T16:21:34.637Z,53.80
2018-08-18T16:24:03.951Z,53.70
2018-08-18T16:26:33.404Z,53.90
2018-08-18T16:29:02.692Z,53.80
2018-08-18T16:31:31.953Z,53.80
2018-08-18T16:34:01.225Z,54.30
2018-08-18T16:36:35.679Z,54.20
2018-08-18T16:39:05.200Z,54.30
2018-08-18T16:41:34.454Z,54.40
2018-08-18T16:44:03.714Z,54.40
2018-08-18T16:46:33.085Z,54.60
2018-08-18T16:49:02.359Z,54.90
2018-08-18T16:51:31.671Z,54.90
2018-08-18T16:54:33.309Z,54.80
2018-08-18T16:57:02.589Z,54.40
2018-08-18T16:59:35.214Z,54.10
2018-08-18T17:02:05.326Z,54.40
2018-08-18T17:04:35.273Z,54.60
2018-08-18T17:07:11.564Z,55.00
2018-08-18T17:09:42.229Z,55.40
2018-08-18T17:12:21.124Z,55.70
2018-08-18T17:14:50.421Z,56.00
2018-08-18T17:17:22.536Z,56.20
2018-08-18T17:19:51.850Z,56.40
2018-08-18T17:22:21.189Z,56.70
2018-08-18T17:24:50.585Z,56.90
2018-08-18T17:27:19.863Z,57.20
2018-08-18T17:29:50.900Z,57.30
2018-08-18T17:32:20.206Z,57.50
2018-08-18T17:34:49.487Z,57.50
2018-08-18T17:37:18.765Z,57.90
2018-08-18T17:39:48.161Z,57.90
2018-08-18T17:42:17.505Z,58.10
2018-08-18T17:44:46.796Z,58.10
2018-08-18T17:47:16.063Z,58.40
2018-08-18T17:49:50.605Z,58.40
2018-08-18T17:52:19.891Z,58.50
2018-08-18T17:55:07.583Z,58.80
2018-08-18T17:57:37.876Z,59.10
2018-08-18T18:00:17.296Z,59.30
2018-08-18T18:02:53.041Z,59.40
2018-08-18T18:05:24.454Z,59.60
2018-08-18T18:07:59.615Z,59.80
2018-08-18T18:10:35.435Z,59.90
2018-08-18T18:13:18.595Z,60.30
2018-08-18T18:15:48.473Z,60.50
2018-08-18T18:18:19.307Z,61.30
2018-08-18T18:20:49.665Z,60.90
2018-08-18T18:23:19.396Z,61.20
2018-08-18T18:25:48.625Z,61.20
2018-08-18T18:28:17.951Z,61.50
2018-08-18T18:30:47.205Z,61.70
2018-08-18T18:33:16.549Z,62.00
2018-08-18T18:35:45.792Z,62.20
2018-08-18T18:38:15.047Z,62.20
2018-08-18T18:40:45.374Z,62.50
2018-08-18T18:43:14.636Z,62.50
2018-08-18T18:45:43.918Z,62.80
2018-08-18T18:48:15.223Z,62.80
2018-08-18T18:50:46.406Z,63.70
2018-08-18T18:53:15.886Z,63.00
2018-08-18T18:55:50.719Z,63.10
2018-08-18T18:58:19.991Z,63.00
2018-08-18T19:00:55.877Z,63.00
2018-08-18T19:03:25.148Z,63.10
2018-08-18T19:05:54.427Z,63.10
2018-08-18T19:08:23.674Z,63.20
2018-08-18T19:10:52.902Z,63.40
2018-08-18T19:13:22.143Z,63.40
2018-08-18T19:15:51.435Z,63.50
2018-08-18T19:18:20.667Z,63.50
2018-08-18T19:20:49.900Z,63.80
2018-08-18T19:23:20.404Z,63.80
2018-08-18T19:25:50.861Z,63.90
2018-08-18T19:28:22.418Z,64.00
2018-08-18T19:30:51.729Z,64.40
2018-08-18T19:33:21.245Z,64.40
2018-08-18T19:35:52.904Z,64.50
2018-08-18T19:38:23.269Z,64.60
2018-08-18T19:40:55.950Z,64.60
2018-08-18T19:43:27.207Z,64.80
2018-08-18T19:45:57.051Z,65.00
2018-08-18T19:48:27.706Z,65.10
2018-08-18T19:51:03.633Z,65.40
2018-08-18T19:53:35.215Z,65.70
2018-08-18T19:56:08.539Z,66.30
2018-08-18T19:58:37.800Z,66.50
2018-08-18T20:01:07.260Z,66.70
2018-08-18T20:03:36.502Z,67.50
2018-08-18T20:06:09.848Z,66.60
2018-08-18T20:08:39.102Z,67.00
2018-08-18T20:11:08.385Z,67.10
2018-08-18T20:13:37.705Z,67.40
2018-08-18T20:16:07.292Z,67.90
2018-08-18T20:18:36.578Z,67.90
2018-08-18T20:21:05.855Z,67.90
2018-08-18T20:23:35.138Z,67.60
2018-08-18T20:26:04.380Z,67.30
2018-08-18T20:28:33.673Z,67.40
2018-08-18T20:31:03.056Z,67.20
2018-08-18T20:33:32.387Z,67.60
2018-08-18T20:36:01.664Z,67.50
2018-08-18T20:38:39.038Z,67.70
2018-08-18T20:41:08.260Z,69.00
2018-08-18T20:43:37.521Z,69.10
2018-08-18T20:46:06.877Z,68.60
2018-08-18T20:48:36.215Z,69.30
2018-08-18T20:51:05.368Z,69.80
2018-08-18T20:53:34.692Z,70.40
2018-08-18T20:56:04.067Z,70.50
2018-08-18T20:58:33.907Z,70.50
2018-08-18T21:01:03.536Z,70.90
2018-08-18T21:03:51.690Z,71.00
2018-08-18T21:06:20.960Z,71.50
2018-08-18T21:08:50.251Z,72.20
2018-08-18T21:11:19.584Z,73.00
2018-08-18T21:13:50.049Z,73.50
2018-08-18T21:16:20.170Z,74.00
2018-08-18T21:18:49.450Z,74.00
2018-08-18T21:21:35.493Z,74.30
2018-08-18T21:24:05.140Z,74.40
2018-08-18T21:26:34.514Z,74.80
2018-08-18T21:29:03.912Z,75.30
2018-08-18T21:31:33.171Z,76.10
2018-08-18T21:34:03.424Z,75.30
2018-08-18T21:36:33.220Z,75.10
2018-08-18T21:39:06.025Z,75.10
2018-08-18T21:41:37.809Z,75.00
2018-08-18T21:44:09.184Z,74.80
2018-08-18T21:46:38.933Z,74.80
2018-08-18T21:49:08.473Z,74.30
2018-08-18T21:51:37.766Z,74.10
2018-08-18T21:54:07.014Z,74.30
2018-08-18T21:56:38.589Z,74.20
2018-08-18T21:59:10.054Z,75.10
2018-08-18T22:01:39.353Z,74.70
2018-08-18T22:04:09.749Z,75.00
2018-08-18T22:06:39.025Z,75.60
2018-08-18T22:09:21.594Z,75.70
2018-08-18T22:11:50.982Z,75.50
2018-08-18T22:14:20.232Z,76.60
2018-08-18T22:16:54.610Z,75.80
2018-08-18T22:19:24.057Z,75.90
2018-08-18T22:21:53.376Z,76.50
2018-08-18T22:24:22.789Z,76.60
2018-08-18T22:26:52.085Z,76.60
2018-08-18T22:29:26.037Z,75.70
2018-08-18T22:31:55.330Z,77.00
2018-08-18T22:34:24.698Z,77.40
2018-08-18T22:37:01.738Z,78.40
2018-08-18T22:39:31.126Z,77.90
2018-08-18T22:42:00.351Z,78.10
2018-08-18T22:44:29.614Z,78.20
2018-08-18T22:46:58.876Z,78.20
2018-08-18T22:49:28.148Z,78.10
2018-08-18T22:51:57.426Z,78.40
2018-08-18T22:54:26.852Z,78.60
2018-08-18T22:57:01.536Z,78.70
2018-08-18T22:59:31.361Z,78.90
2018-08-18T23:02:00.689Z,79.50
2018-08-18T23:04:35.303Z,79.40
2018-08-18T23:07:05.737Z,79.40
2018-08-18T23:09:34.988Z,79.10
2018-08-18T23:12:06.568Z,78.80
2018-08-18T23:14:36.868Z,79.30
2018-08-18T23:17:07.788Z,79.30
2018-08-18T23:19:37.084Z,79.00
2018-08-18T23:22:06.332Z,79.00
2018-08-18T23:24:37.753Z,79.40
2018-08-18T23:27:06.981Z,79.70
2018-08-18T23:29:36.257Z,80.10
2018-08-18T23:32:16.517Z,80.00
2018-08-18T23:34:45.785Z,80.20
2018-08-18T23:37:19.994Z,80.10
2018-08-18T23:39:54.020Z,80.40
2018-08-18T23:42:25.031Z,80.60
2018-08-18T23:44:54.297Z,80.60
2018-08-18T23:47:23.561Z,80.70
2018-08-18T23:49:52.777Z,80.70
2018-08-18T23:52:22.025Z,81.00
2018-08-18T23:54:51.305Z,81.30
2018-08-18T23:57:20.545Z,81.30
2018-08-18T23:59:50.711Z,81.70
